createdAt,value
2022-11-14T00:01:18.308Z,12.93
2022-11-14T00:04:04.545Z,16.05
2022-11-14T00:06:50.454Z,10.98
2022-11-14T00:09:38.699Z,12.63
2022-11-14T00:12:24.688Z,12.07
2022-11-14T00:15:10.829Z,12.63
2022-11-14T00:17:57.051Z,11.20
2022-11-14T00:20:43.119Z,12.45
2022-11-14T00:23:29.041Z,12.52
2022-11-14T00:26:15.246Z,13.25
2022-11-14T00:29:01.527Z,11.43
2022-11-14T00:31:47.489Z,13.75
2022-11-14T00:34:33.520Z,15.07
2022-11-14T00:37:19.670Z,13.32
2022-11-14T00:40:05.566Z,13.70
2022-11-14T00:42:51.874Z,13.07
2022-11-14T00:45:37.999Z,13.52
2022-11-14T00:48:24.502Z,13.55
2022-11-14T00:51:10.833Z,15.48
2022-11-14T00:53:56.957Z,15.20
2022-11-14T00:56:43.104Z,15.40
2022-11-14T00:59:29.192Z,13.43
2022-11-14T01:02:15.042Z,15.07
2022-11-14T01:05:02.414Z,18.23
2022-11-14T01:07:48.727Z,13.95
2022-11-14T01:10:34.572Z,13.55
2022-11-14T01:13:20.413Z,14.30
2022-11-14T01:16:06.868Z,15.25
2022-11-14T01:18:52.997Z,14.43
2022-11-14T01:21:39.010Z,14.32
2022-11-14T01:24:24.602Z,14.90
2022-11-14T01:27:10.923Z,13.77
2022-11-14T01:29:56.774Z,13.60
2022-11-14T01:32:43.139Z,12.32
2022-11-14T01:35:28.971Z,14.48
2022-11-14T01:38:15.734Z,14.65
2022-11-14T01:41:01.914Z,15.48
2022-11-14T01:43:47.863Z,13.48
2022-11-14T01:46:38.076Z,14.95
2022-11-14T01:49:26.807Z,15.18
2022-11-14T01:52:17.887Z,14.80
2022-11-14T01:55:06.329Z,16.65
2022-11-14T01:57:52.474Z,16.65
2022-11-14T02:00:38.422Z,15.57
2022-11-14T02:03:24.294Z,16.58
2022-11-14T02:06:11.637Z,14.98
2022-11-14T02:08:58.735Z,15.27
2022-11-14T02:11:46.226Z,16.38
2022-11-14T02:14:32.671Z,15.52
2022-11-14T02:17:34.767Z,13.73
2022-11-14T02:20:28.475Z,14.38
2022-11-14T02:23:15.109Z,15.90
2022-11-14T02:26:00.736Z,15.75
2022-11-14T02:28:47.169Z,12.90
2022-11-14T02:31:33.087Z,13.75
2022-11-14T02:34:20.595Z,16.58
2022-11-14T02:37:06.999Z,16.52
2022-11-14T02:39:52.748Z,16.60
2022-11-14T02:42:38.402Z,14.55
2022-11-14T02:45:24.318Z,14.27
2022-11-14T02:48:10.174Z,16.23
2022-11-14T02:50:56.637Z,17.00
2022-11-14T02:53:42.280Z,16.90
2022-11-14T02:56:28.270Z,14.75
2022-11-14T02:59:13.921Z,14.88
2022-11-14T03:01:59.662Z,15.25
2022-11-14T03:04:45.776Z,14.52
2022-11-14T03:07:31.679Z,15.88
2022-11-14T03:10:17.856Z,15.50
2022-11-14T03:13:03.749Z,14.50
2022-11-14T03:15:49.825Z,12.90
2022-11-14T03:18:36.258Z,14.25
2022-11-14T03:21:23.222Z,14.77
2022-11-14T03:24:09.384Z,14.95
2022-11-14T03:26:55.138Z,14.68
2022-11-14T03:29:40.952Z,14.95
2022-11-14T03:32:27.091Z,16.55
2022-11-14T03:35:12.845Z,14.07
2022-11-14T03:37:58.468Z,16.20
2022-11-14T03:40:44.867Z,14.88
2022-11-14T03:43:32.029Z,14.82
2022-11-14T03:46:18.288Z,14.38
2022-11-14T03:49:04.178Z,15.70
2022-11-14T03:51:50.979Z,15.43
2022-11-14T03:54:37.098Z,14.27
2022-11-14T03:57:22.991Z,14.70
2022-11-14T04:00:09.283Z,13.15
2022-11-14T04:02:58.465Z,16.02
2022-11-14T04:05:45.583Z,14.23
2022-11-14T04:08:32.278Z,15.40
2022-11-14T04:11:18.610Z,14.85
2022-11-14T04:14:04.763Z,15.48
2022-11-14T04:16:50.595Z,15.15
2022-11-14T04:19:36.529Z,14.23
2022-11-14T04:22:22.411Z,14.63
2022-11-14T04:25:10.053Z,13.45
2022-11-14T04:27:55.855Z,14.20
2022-11-14T04:30:42.170Z,14.90
2022-11-14T04:33:28.258Z,13.18
2022-11-14T04:36:14.346Z,15.80
2022-11-14T04:39:00.119Z,13.65
2022-11-14T04:41:46.486Z,14.65
2022-11-14T04:44:32.494Z,21.75
2022-11-14T04:47:18.260Z,20.20
2022-11-14T04:50:04.312Z,20.00
2022-11-14T04:52:52.725Z,19.52
2022-11-14T04:55:38.602Z,20.17
2022-11-14T04:58:24.374Z,21.10
2022-11-14T05:01:14.259Z,22.65
2022-11-14T05:04:00.545Z,21.75
2022-11-14T05:06:46.301Z,22.52
2022-11-14T05:09:32.319Z,20.90
2022-11-14T05:12:18.114Z,19.88
2022-11-14T05:15:04.050Z,23.13
2022-11-14T05:17:49.658Z,22.15
2022-11-14T05:20:35.399Z,24.30
2022-11-14T05:23:21.968Z,22.95
2022-11-14T05:26:09.755Z,23.73
2022-11-14T05:28:55.610Z,22.92
2022-11-14T05:31:41.917Z,22.48
2022-11-14T05:34:28.093Z,24.30
2022-11-14T05:37:14.200Z,23.08
2022-11-14T05:40:00.058Z,25.25
2022-11-14T05:42:45.898Z,24.58
2022-11-14T05:45:31.939Z,26.27
2022-11-14T05:48:18.046Z,24.00
2022-11-14T05:51:04.793Z,22.33
2022-11-14T05:53:50.870Z,25.73
2022-11-14T05:56:36.762Z,152.68
2022-11-14T05:59:22.659Z,178.25
2022-11-14T06:02:08.427Z,207.52
2022-11-14T06:04:54.762Z,191.43
2022-11-14T06:07:40.686Z,186.93
2022-11-14T06:10:27.199Z,137.18
2022-11-14T06:13:13.113Z,203.45
2022-11-14T06:16:02.302Z,112.35
2022-11-14T06:18:48.686Z,104.15
2022-11-14T06:21:34.804Z,75.18
2022-11-14T06:24:20.616Z,84.85
2022-11-14T06:27:08.904Z,85.43
2022-11-14T06:29:54.611Z,60.90
2022-11-14T06:32:40.470Z,112.13
2022-11-14T06:35:26.767Z,128.05
2022-11-14T06:38:12.600Z,69.72
2022-11-14T06:41:11.987Z,81.88
2022-11-14T06:43:57.902Z,96.80
2022-11-14T06:46:43.721Z,60.67
2022-11-14T06:49:29.505Z,83.35
2022-11-14T06:52:15.212Z,117.05
2022-11-14T06:55:01.046Z,94.45
2022-11-14T06:57:46.811Z,142.18
2022-11-14T07:00:33.200Z,148.38
2022-11-14T07:03:18.954Z,62.17
2022-11-14T07:06:05.891Z,108.57
2022-11-14T07:08:52.362Z,128.88
2022-11-14T07:11:38.536Z,92.47
2022-11-14T07:14:24.700Z,95.00
2022-11-14T07:17:10.406Z,91.82
2022-11-14T07:19:56.134Z,69.70
2022-11-14T07:22:42.075Z,66.97
2022-11-14T07:25:28.132Z,99.10
2022-11-14T07:28:14.119Z,33.97
2022-11-14T07:30:59.863Z,37.97
2022-11-14T07:33:46.413Z,22.85
2022-11-14T07:36:32.136Z,20.73
2022-11-14T07:39:17.930Z,21.23
2022-11-14T07:42:03.851Z,20.38
2022-11-14T07:44:50.083Z,20.35
2022-11-14T07:47:36.271Z,21.73
2022-11-14T07:50:22.193Z,18.95
2022-11-14T07:53:08.001Z,19.98
2022-11-14T07:55:54.483Z,19.20
2022-11-14T07:58:41.399Z,20.30
2022-11-14T08:01:27.826Z,18.67
2022-11-14T08:04:14.005Z,20.20
2022-11-14T08:07:00.245Z,24.77
2022-11-14T08:09:46.179Z,21.83
2022-11-14T08:12:31.951Z,23.48
2022-11-14T08:15:17.738Z,20.48
2022-11-14T08:18:03.947Z,21.65
2022-11-14T08:20:49.649Z,21.45
2022-11-14T08:23:35.332Z,22.15
2022-11-14T08:26:20.946Z,24.80
2022-11-14T08:29:07.096Z,20.25
2022-11-14T08:31:57.135Z,23.15
2022-11-14T08:34:45.836Z,21.40
2022-11-14T08:37:32.253Z,20.88
2022-11-14T08:40:17.878Z,19.92
2022-11-14T08:43:04.111Z,19.92
2022-11-14T08:45:50.779Z,21.23
2022-11-14T08:48:36.698Z,17.98
2022-11-14T08:51:23.167Z,19.98
2022-11-14T08:54:09.399Z,25.08
2022-11-14T08:56:55.262Z,21.08
2022-11-14T08:59:41.012Z,25.23
2022-11-14T09:02:27.271Z,20.17
2022-11-14T09:05:12.961Z,21.23
2022-11-14T09:07:59.830Z,18.88
2022-11-14T09:10:45.635Z,20.90
2022-11-14T09:13:33.245Z,23.67
2022-11-14T09:16:19.229Z,19.67
2022-11-14T09:19:05.482Z,19.63
2022-11-14T09:21:51.425Z,21.80
2022-11-14T09:24:37.311Z,28.33
2022-11-14T09:27:23.225Z,19.42
2022-11-14T09:30:09.160Z,21.17
2022-11-14T09:32:59.767Z,21.08
2022-11-14T09:35:45.742Z,19.77
2022-11-14T09:38:37.028Z,19.83
2022-11-14T09:41:24.739Z,20.75
2022-11-14T09:44:10.896Z,21.23
2022-11-14T09:47:04.036Z,25.20
2022-11-14T09:49:52.251Z,22.77
2022-11-14T09:52:39.360Z,20.20
2022-11-14T09:55:33.611Z,20.30
2022-11-14T09:58:22.451Z,19.27
2022-11-14T10:01:26.868Z,18.50
2022-11-14T10:04:13.259Z,18.85
2022-11-14T10:07:15.955Z,20.73
2022-11-14T10:10:20.530Z,19.08
2022-11-14T10:13:15.051Z,17.95
2022-11-14T10:16:07.493Z,17.13
2022-11-14T10:19:04.812Z,15.82
2022-11-14T10:22:09.310Z,16.63
2022-11-14T10:25:02.279Z,19.75
2022-11-14T10:28:06.970Z,18.77
2022-11-14T10:31:15.311Z,17.23
2022-11-14T10:34:10.123Z,18.30
2022-11-14T10:37:05.514Z,17.13
2022-11-14T10:39:55.733Z,17.60
2022-11-14T10:42:43.069Z,17.98
2022-11-14T10:45:30.293Z,18.88
2022-11-14T10:48:18.801Z,18.92
2022-11-14T10:51:24.672Z,20.90
2022-11-14T10:56:56.567Z,15.65
2022-11-14T10:59:43.303Z,19.20
2022-11-14T11:02:47.868Z,17.27
2022-11-14T11:05:45.165Z,15.85
2022-11-14T11:08:50.471Z,16.17
2022-11-14T11:11:39.361Z,17.38
2022-11-14T11:14:26.411Z,17.20
2022-11-14T11:17:12.880Z,15.75
2022-11-14T11:20:15.769Z,14.35
2022-11-14T11:23:10.577Z,17.60
2022-11-14T11:26:00.157Z,17.20
2022-11-14T11:29:01.247Z,15.85
2022-11-14T11:31:51.617Z,15.90
2022-11-14T11:34:37.266Z,14.93
2022-11-14T11:37:25.457Z,15.98
2022-11-14T11:40:15.436Z,17.17
2022-11-14T11:43:37.399Z,17.23
2022-11-14T11:46:16.399Z,16.27
2022-11-14T11:49:06.919Z,17.88
2022-11-14T11:51:55.459Z,15.80
2022-11-14T11:54:48.884Z,17.25
2022-11-14T11:57:43.360Z,18.45
2022-11-14T12:00:29.361Z,19.70
2022-11-14T12:03:20.232Z,19.80
2022-11-14T12:06:06.448Z,19.45
2022-11-14T12:09:04.312Z,19.05
2022-11-14T12:11:53.665Z,21.58
2022-11-14T12:14:48.900Z,22.58
2022-11-14T12:17:38.157Z,18.85
2022-11-14T12:20:33.584Z,19.67
2022-11-14T12:23:32.070Z,23.92
2022-11-14T12:26:36.295Z,22.52
2022-11-14T12:29:25.234Z,23.05
2022-11-14T12:32:14.029Z,20.20
2022-11-14T12:35:00.808Z,20.27
2022-11-14T12:37:52.717Z,21.73
2022-11-14T12:40:49.685Z,20.23
2022-11-14T12:43:37.238Z,20.02
2022-11-14T12:46:24.009Z,20.75
2022-11-14T12:49:31.504Z,21.55
2022-11-14T12:52:39.975Z,23.27
2022-11-14T12:55:26.039Z,21.58
2022-11-14T12:58:34.512Z,21.15
2022-11-14T13:01:35.887Z,19.30
2022-11-14T13:04:28.058Z,19.25
2022-11-14T13:07:36.906Z,17.52
2022-11-14T13:10:33.570Z,17.13
2022-11-14T13:13:38.372Z,18.45
2022-11-14T13:16:44.796Z,16.83
2022-11-14T13:19:51.416Z,16.80
2022-11-14T13:22:37.507Z,15.25
2022-11-14T13:25:23.837Z,17.05
2022-11-14T13:28:28.090Z,18.02
2022-11-14T13:31:17.050Z,18.30
2022-11-14T13:34:23.428Z,21.60
2022-11-14T13:37:31.524Z,19.55
2022-11-14T13:40:24.928Z,17.55
2022-11-14T13:43:10.692Z,19.38
2022-11-14T13:45:56.765Z,19.70
2022-11-14T13:48:55.477Z,20.63
2022-11-14T13:51:43.724Z,21.75
2022-11-14T13:54:30.183Z,20.48
2022-11-14T13:57:31.011Z,18.67
2022-11-14T14:00:20.664Z,18.50
2022-11-14T14:03:24.565Z,19.83
2022-11-14T14:06:21.382Z,18.30
2022-11-14T14:09:13.573Z,17.65
2022-11-14T14:11:59.736Z,20.00
2022-11-14T14:15:07.939Z,20.35
2022-11-14T14:18:07.208Z,18.10
2022-11-14T14:20:59.449Z,16.88
2022-11-14T14:23:58.967Z,18.42
2022-11-14T14:26:47.817Z,19.20
2022-11-14T14:29:36.374Z,16.00
2022-11-14T14:32:22.569Z,17.75
2022-11-14T14:35:41.145Z,18.05
2022-11-14T14:38:29.123Z,15.93
2022-11-14T14:41:16.747Z,17.45
2022-11-14T14:44:02.711Z,19.95
2022-11-14T14:46:48.963Z,24.65
2022-11-14T14:49:38.521Z,21.10
2022-11-14T14:52:42.134Z,20.65
2022-11-14T14:55:29.706Z,20.67
2022-11-14T14:58:22.700Z,22.48
2022-11-14T15:01:13.533Z,21.67
2022-11-14T15:04:03.503Z,20.20
2022-11-14T15:06:49.748Z,22.05
2022-11-14T15:09:35.642Z,20.80
2022-11-14T15:12:22.173Z,19.73
2022-11-14T15:15:13.367Z,17.55
2022-11-14T15:18:02.008Z,19.92
2022-11-14T15:21:06.938Z,18.42
2022-11-14T15:24:11.834Z,19.40
2022-11-14T15:26:57.611Z,22.30
2022-11-14T15:29:51.158Z,19.48
2022-11-14T15:32:37.264Z,21.42
2022-11-14T15:35:29.339Z,18.35
2022-11-14T15:38:42.502Z,18.95
2022-11-14T15:41:28.146Z,19.70
2022-11-14T15:44:33.032Z,19.45
2022-11-14T15:47:21.064Z,19.92
2022-11-14T15:50:12.679Z,18.20
2022-11-14T15:53:05.838Z,17.20
2022-11-14T15:55:51.507Z,19.75
2022-11-14T15:58:37.396Z,18.38
2022-11-14T16:01:26.067Z,20.67
2022-11-14T16:04:15.693Z,20.27
2022-11-14T16:07:01.702Z,20.20
2022-11-14T16:09:48.188Z,19.83
2022-11-14T16:12:34.062Z,20.90
2022-11-14T16:15:20.830Z,22.38
2022-11-14T16:18:06.967Z,23.65
2022-11-14T16:20:52.899Z,21.15
2022-11-14T16:23:39.406Z,21.05
2022-11-14T16:26:28.668Z,25.33
2022-11-14T16:29:14.514Z,22.77
2022-11-14T16:32:00.607Z,22.00
2022-11-14T16:34:46.442Z,23.30
2022-11-14T16:37:32.686Z,26.20
2022-11-14T16:40:21.498Z,22.30
2022-11-14T16:43:07.840Z,21.35
2022-11-14T16:45:53.813Z,20.02
2022-11-14T16:48:39.756Z,19.85
2022-11-14T16:54:33.173Z,21.95
2022-11-14T16:57:19.418Z,22.90
2022-11-14T17:00:06.745Z,23.60
2022-11-14T17:02:52.627Z,22.48
2022-11-14T17:05:45.503Z,21.10
2022-11-14T17:08:31.450Z,23.58
2022-11-14T17:11:17.194Z,19.85
2022-11-14T17:14:03.406Z,24.23
2022-11-14T17:16:49.030Z,20.90
2022-11-14T17:19:34.822Z,22.15
2022-11-14T17:22:20.772Z,23.35
2022-11-14T17:25:07.178Z,25.70
2022-11-14T17:27:53.343Z,22.58
2022-11-14T17:30:42.445Z,22.27
2022-11-14T17:33:29.279Z,23.40
2022-11-14T17:36:15.621Z,24.88
2022-11-14T17:39:01.484Z,22.38
2022-11-14T17:41:47.629Z,23.38
2022-11-14T17:44:33.873Z,21.83
2022-11-14T17:47:20.290Z,24.35
2022-11-14T17:50:06.182Z,23.23
2022-11-14T17:52:52.238Z,26.50
2022-11-14T17:55:38.613Z,24.30
2022-11-14T17:58:25.149Z,27.42
2022-11-14T18:01:12.273Z,25.77
2022-11-14T18:04:01.740Z,26.50
2022-11-14T18:06:51.714Z,25.77
2022-11-14T18:09:38.171Z,26.27
2022-11-14T18:12:23.894Z,28.23
2022-11-14T18:15:09.880Z,29.15
2022-11-14T18:17:55.923Z,27.63
2022-11-14T18:20:41.776Z,29.55
2022-11-14T18:23:27.611Z,28.77
2022-11-14T18:26:16.306Z,33.20
2022-11-14T18:29:02.855Z,32.42
2022-11-14T18:31:48.891Z,33.92
2022-11-14T18:34:37.039Z,35.42
2022-11-14T18:37:23.370Z,40.67
2022-11-14T18:40:16.220Z,38.40
2022-11-14T18:43:02.698Z,37.03
2022-11-14T18:45:48.542Z,39.78
2022-11-14T18:48:35.012Z,46.15
2022-11-14T18:51:22.408Z,43.30
2022-11-14T18:54:12.790Z,41.83
2022-11-14T18:57:01.344Z,41.88
2022-11-14T18:59:47.655Z,45.05
2022-11-14T19:02:33.481Z,37.75
2022-11-14T19:05:19.702Z,39.25
2022-11-14T19:08:07.610Z,39.40
2022-11-14T19:10:53.702Z,40.15
2022-11-14T19:13:39.519Z,40.28
2022-11-14T19:16:25.263Z,36.55
2022-11-14T19:19:11.511Z,31.63
2022-11-14T19:21:57.382Z,31.52
2022-11-14T19:24:45.091Z,33.67
2022-11-14T19:27:31.282Z,33.33
2022-11-14T19:30:17.353Z,30.42
2022-11-14T19:33:06.196Z,31.63
2022-11-14T19:35:52.096Z,32.75
2022-11-14T19:38:37.950Z,32.50
2022-11-14T19:41:27.536Z,35.35
2022-11-14T19:44:13.973Z,32.00
2022-11-14T19:46:59.886Z,32.72
2022-11-14T19:49:45.598Z,33.17
2022-11-14T19:52:31.350Z,33.15
2022-11-14T19:55:17.269Z,37.45
2022-11-14T19:58:03.428Z,42.72
2022-11-14T20:00:49.314Z,35.08
2022-11-14T20:03:35.883Z,34.22
2022-11-14T20:06:41.563Z,32.72
2022-11-14T20:09:27.412Z,31.90
2022-11-14T20:12:13.285Z,34.35
2022-11-14T20:14:59.061Z,31.63
2022-11-14T20:17:45.058Z,31.95
2022-11-14T20:20:30.917Z,37.40
2022-11-14T20:23:17.673Z,32.25
2022-11-14T20:26:09.915Z,32.75
2022-11-14T20:28:57.127Z,32.85
2022-11-14T20:31:42.971Z,32.05
2022-11-14T20:34:30.135Z,33.05
2022-11-14T20:37:16.044Z,33.58
2022-11-14T20:40:02.667Z,31.58
2022-11-14T20:42:49.125Z,31.40
2022-11-14T20:45:35.352Z,32.72
2022-11-14T20:48:20.866Z,27.50
2022-11-14T20:51:09.519Z,27.75
2022-11-14T20:53:55.955Z,29.85
2022-11-14T20:56:42.008Z,29.42
2022-11-14T20:59:28.068Z,31.77
2022-11-14T21:02:15.156Z,34.92
2022-11-14T21:05:01.682Z,31.65
2022-11-14T21:07:50.648Z,26.50
2022-11-14T21:10:46.030Z,27.63
2022-11-14T21:13:51.001Z,28.13
2022-11-14T21:16:38.670Z,27.55
2022-11-14T21:19:25.341Z,27.50
2022-11-14T21:22:10.989Z,27.65
2022-11-14T21:24:57.090Z,29.60
2022-11-14T21:27:43.044Z,28.50
2022-11-14T21:30:31.771Z,28.45
2022-11-14T21:33:17.461Z,30.95
2022-11-14T21:36:22.799Z,29.83
2022-11-14T21:39:14.924Z,32.47
2022-11-14T21:42:01.147Z,31.42
2022-11-14T21:44:47.021Z,34.30
2022-11-14T21:47:33.951Z,35.10
2022-11-14T21:50:19.569Z,33.60
2022-11-14T21:53:16.147Z,35.42
2022-11-14T21:56:09.166Z,34.05
2022-11-14T21:59:12.828Z,36.13
2022-11-14T22:02:17.822Z,36.45
2022-11-14T22:05:03.966Z,36.63
2022-11-14T22:07:49.858Z,39.25
2022-11-14T22:10:35.603Z,38.78
2022-11-14T22:13:21.542Z,42.92
2022-11-14T22:16:11.521Z,36.80
2022-11-14T22:19:04.493Z,39.08
2022-11-14T22:21:51.660Z,37.67
2022-11-14T22:24:37.846Z,38.75
2022-11-14T22:27:23.699Z,45.95
2022-11-14T22:30:09.496Z,40.50
2022-11-14T22:32:55.549Z,38.90
2022-11-14T22:35:41.277Z,42.97
2022-11-14T22:38:29.069Z,43.47
2022-11-14T22:41:16.284Z,42.22
2022-11-14T22:44:02.607Z,40.75
2022-11-14T22:46:48.766Z,44.58
2022-11-14T22:49:34.656Z,38.15
2022-11-14T22:52:20.897Z,44.00
2022-11-14T22:55:07.335Z,40.45
2022-11-14T22:57:53.052Z,40.83
2022-11-14T23:00:38.818Z,40.25
2022-11-14T23:03:24.591Z,42.50
2022-11-14T23:06:12.060Z,37.88
2022-11-14T23:08:57.999Z,36.00
2022-11-14T23:11:44.222Z,36.33
2022-11-14T23:14:30.129Z,38.17
2022-11-14T23:17:16.112Z,38.25
2022-11-14T23:20:01.917Z,35.50
2022-11-14T23:22:47.586Z,38.10
2022-11-14T23:25:35.796Z,36.25
2022-11-14T23:28:21.814Z,38.85
2022-11-14T23:31:08.088Z,39.97
2022-11-14T23:33:55.265Z,34.53
2022-11-14T23:36:41.327Z,36.53
2022-11-14T23:39:27.153Z,37.67
2022-11-14T23:42:13.143Z,36.95
2022-11-14T23:44:59.036Z,36.00
2022-11-14T23:47:44.737Z,38.20
2022-11-14T23:50:30.778Z,35.60
2022-11-14T23:53:16.395Z,33.70
2022-11-14T23:56:02.851Z,35.60
2022-11-14T23:58:48.725Z,41.15
